Time;durP1;ratioP1;P1;durP2;ratioP2;P2;SDS_P1;SDS_P2;PMS_P1;PMS_P2;Temp;Humidity;BMP_temperature;BMP_pressure;BME280_temperature;BME280_humidity;BME280_pressure;Samples;Min_cycle;Max_cycle;Signal;HPM_P1;HPM_P2
2021/11/27 00:00:14;;;;;;;2.72;1.60;;;21.70;35.70;;;;;;5033195;28;20395;-74
2021/11/27 00:02:42;;;;;;;2.35;1.45;;;21.70;35.60;;;;;;5033681;28;20398;-75
2021/11/27 00:05:13;;;;;;;1.83;1.42;;;21.70;35.50;;;;;;5033284;28;20442;-74
2021/11/27 00:07:40;;;;;;;1.98;1.38;;;21.60;35.20;;;;;;5030745;28;20956;-74
2021/11/27 00:10:11;;;;;;;1.83;1.40;;;21.60;35.10;;;;;;5032432;28;20388;-74
2021/11/27 00:12:39;;;;;;;2.03;1.48;;;21.60;34.90;;;;;;5031475;28;20402;-75
2021/11/27 00:15:07;;;;;;;2.08;1.20;;;21.60;34.90;;;;;;5031633;28;20437;-74
2021/11/27 00:17:34;;;;;;;1.88;1.48;;;21.60;34.90;;;;;;5031557;28;20770;-74
2021/11/27 00:19:59;;;;;;;2.30;1.50;;;21.60;34.80;;;;;;5028353;28;20397;-75
2021/11/27 00:22:26;;;;;;;1.87;1.30;;;21.60;34.70;;;;;;5017951;28;20736;-75
2021/11/27 00:24:52;;;;;;;2.00;1.60;;;21.60;34.70;;;;;;5021496;28;20524;-75
2021/11/27 00:27:17;;;;;;;2.27;1.47;;;21.60;34.60;;;;;;5017251;28;20953;-74
2021/11/27 00:29:43;;;;;;;1.70;1.23;;;21.60;34.70;;;;;;5011781;28;20423;-74
2021/11/27 00:32:09;;;;;;;1.60;1.27;;;21.60;34.70;;;;;;5023757;28;20493;-75
2021/11/27 00:34:34;;;;;;;1.90;1.30;;;21.60;34.70;;;;;;5031456;28;20887;-74
2021/11/27 00:37:00;;;;;;;1.93;1.30;;;21.50;34.60;;;;;;5031212;28;20383;-75
2021/11/27 00:39:26;;;;;;;1.90;1.27;;;21.50;34.70;;;;;;5030220;28;20808;-74
2021/11/27 00:41:51;;;;;;;2.40;1.30;;;21.50;34.70;;;;;;5034891;28;20383;-74
2021/11/27 00:44:19;;;;;;;2.45;1.27;;;21.50;34.70;;;;;;5035495;28;20417;-74
2021/11/27 00:46:45;;;;;;;1.63;1.30;;;21.50;34.70;;;;;;5033753;28;20502;-74
2021/11/27 00:49:12;;;;;;;2.53;1.40;;;21.50;34.60;;;;;;5035343;28;20387;-74
2021/11/27 00:51:38;;;;;;;1.50;1.10;;;21.50;34.60;;;;;;5034219;28;20830;-74
2021/11/27 00:54:04;;;;;;;2.03;1.20;;;21.50;34.60;;;;;;5034000;28;20915;-76
2021/11/27 00:56:30;;;;;;;1.60;1.20;;;21.50;34.60;;;;;;5035130;28;20402;-74
2021/11/27 00:58:55;;;;;;;2.20;1.30;;;21.50;34.60;;;;;;5033583;28;20466;-75
2021/11/27 01:01:26;;;;;;;1.90;1.30;;;21.50;34.70;;;;;;5035349;28;20409;-76
2021/11/27 01:03:52;;;;;;;2.17;1.55;;;21.50;34.70;;;;;;5035196;28;20811;-76
2021/11/27 01:06:21;;;;;;;2.55;1.17;;;21.50;34.70;;;;;;5035105;28;20904;-76
2021/11/27 01:08:52;;;;;;;1.55;1.13;;;21.40;34.60;;;;;;5033690;28;20837;-75
2021/11/27 01:11:36;;;;;;;1.92;1.20;;;21.40;34.70;;;;;;5035135;28;20386;-74
2021/11/27 01:14:06;;;;;;;2.08;1.30;;;21.40;34.60;;;;;;5035155;28;20934;-74
2021/11/27 01:16:36;;;;;;;1.83;1.20;;;21.40;34.60;;;;;;5033747;28;20425;-74
2021/11/27 01:19:03;;;;;;;1.90;1.20;;;21.40;34.60;;;;;;5034663;28;20876;-74
2021/11/27 01:21:32;;;;;;;1.52;1.17;;;21.50;34.60;;;;;;5033575;28;20482;-74
2021/11/27 01:24:03;;;;;;;1.57;1.17;;;21.40;34.60;;;;;;5034827;28;20529;-74
2021/11/27 01:26:31;;;;;;;1.45;1.10;;;21.40;34.50;;;;;;5034642;28;20884;-74
2021/11/27 01:28:57;;;;;;;1.98;1.10;;;21.40;34.60;;;;;;5034325;28;20753;-73
2021/11/27 01:31:23;;;;;;;1.63;1.15;;;21.40;34.60;;;;;;5033231;28;20383;-74
2021/11/27 01:33:48;;;;;;;1.40;1.10;;;21.40;34.50;;;;;;5034716;28;20752;-74
2021/11/27 01:36:15;;;;;;;1.60;1.10;;;21.40;34.50;;;;;;5033122;28;20441;-73
2021/11/27 01:38:40;;;;;;;1.20;0.98;;;21.40;34.50;;;;;;5033686;28;20772;-73
2021/11/27 01:41:07;;;;;;;1.60;1.20;;;21.30;34.50;;;;;;5032640;28;20441;-74
2021/11/27 01:43:33;;;;;;;1.58;1.13;;;21.30;34.60;;;;;;5034707;28;20399;-75
2021/11/27 01:45:59;;;;;;;2.78;1.30;;;21.40;34.60;;;;;;5033115;28;20809;-73
2021/11/27 01:48:26;;;;;;;1.60;1.10;;;21.30;34.60;;;;;;5033188;28;20442;-74
2021/11/27 01:51:13;;;;;;;1.45;1.08;;;21.30;34.60;;;;;;5033801;28;20387;-73
2021/11/27 01:53:42;;;;;;;1.60;1.20;;;21.30;34.50;;;;;;5033370;28;20438;-74
2021/11/27 01:56:14;;;;;;;2.10;1.20;;;21.30;34.50;;;;;;5032879;28;20491;-74
2021/11/27 01:58:40;;;;;;;1.70;1.20;;;21.30;34.50;;;;;;5033797;28;20486;-74
2021/11/27 02:01:11;;;;;;;1.80;1.10;;;21.30;34.50;;;;;;5032670;28;20490;-74
2021/11/27 02:03:38;;;;;;;1.60;1.00;;;21.30;34.50;;;;;;5032739;28;20896;-74
2021/11/27 02:06:06;;;;;;;1.45;1.10;;;21.30;34.50;;;;;;5033823;28;20391;-74
2021/11/27 02:08:32;;;;;;;1.60;1.08;;;21.20;34.50;;;;;;5032549;28;20403;-73
2021/11/27 02:10:59;;;;;;;1.50;1.15;;;21.20;34.50;;;;;;5033438;28;20442;-74
2021/11/27 02:13:25;;;;;;;1.40;1.08;;;21.20;34.40;;;;;;5033977;28;20391;-73
2021/11/27 02:15:51;;;;;;;1.40;1.00;;;21.20;34.50;;;;;;5032538;28;20403;-74
2021/11/27 02:18:17;;;;;;;1.33;0.95;;;21.30;34.50;;;;;;5033535;28;20399;-75
2021/11/27 02:21:02;;;;;;;1.50;1.10;;;21.20;34.50;;;;;;5032112;28;20444;-75
2021/11/27 02:23:29;;;;;;;1.70;1.00;;;21.20;34.40;;;;;;5033726;28;20482;-75
2021/11/27 02:25:56;;;;;;;1.52;1.08;;;21.20;34.40;;;;;;5033421;28;20480;-75
2021/11/27 02:28:21;;;;;;;1.85;1.10;;;21.20;34.50;;;;;;5033639;28;20430;-74
2021/11/27 02:30:47;;;;;;;1.25;0.90;;;21.20;34.60;;;;;;5031903;28;20431;-74
2021/11/27 02:33:13;;;;;;;1.67;1.10;;;21.20;34.50;;;;;;5032427;28;20414;-74
2021/11/27 02:35:40;;;;;;;1.40;1.10;;;21.20;34.50;;;;;;5033471;28;20419;-74
2021/11/27 02:38:06;;;;;;;1.00;0.80;;;21.20;34.50;;;;;;5032218;28;20449;-74
2021/11/27 02:40:32;;;;;;;2.40;1.10;;;21.20;34.50;;;;;;5032147;28;20403;-73
2021/11/27 02:42:58;;;;;;;1.50;1.10;;;21.20;34.50;;;;;;5031727;28;20502;-74
2021/11/27 02:45:24;;;;;;;1.60;1.20;;;21.20;34.40;;;;;;5032112;28;20410;-74
2021/11/27 02:47:50;;;;;;;1.70;1.05;;;21.30;34.50;;;;;;5033310;28;20505;-75
2021/11/27 02:50:16;;;;;;;1.30;0.93;;;21.20;34.60;;;;;;5033310;28;20383;-74
2021/11/27 02:52:42;;;;;;;1.50;0.90;;;21.20;34.40;;;;;;5033039;28;20861;-74
2021/11/27 02:55:09;;;;;;;1.25;0.90;;;21.20;34.50;;;;;;5031885;28;20483;-74
2021/11/27 02:57:35;;;;;;;1.45;1.10;;;21.20;34.50;;;;;;5031979;28;20901;-74
2021/11/27 03:00:03;;;;;;;1.13;0.90;;;21.10;34.40;;;;;;5033171;28;20387;-74
2021/11/27 03:02:29;;;;;;;1.60;1.00;;;21.10;34.30;;;;;;5033035;28;20421;-75
2021/11/27 03:04:55;;;;;;;1.27;0.97;;;21.10;34.30;;;;;;5032619;28;20769;-74
2021/11/27 03:07:21;;;;;;;1.55;1.10;;;21.10;34.30;;;;;;5033223;28;20851;-75
2021/11/27 03:09:47;;;;;;;1.70;0.90;;;21.10;34.40;;;;;;5033265;28;20386;-74
2021/11/27 03:12:12;;;;;;;1.37;1.00;;;21.10;35.00;;;;;;5032871;28;20402;-74
2021/11/27 03:14:38;;;;;;;1.33;0.90;;;21.10;34.40;;;;;;5032978;28;20930;-75
2021/11/27 03:17:04;;;;;;;1.48;0.98;;;21.10;34.40;;;;;;5032573;28;20474;-72
2021/11/27 03:19:33;;;;;;;1.38;1.00;;;21.10;34.50;;;;;;5032710;28;20813;-75
2021/11/27 03:21:59;;;;;;;1.15;0.88;;;21.10;34.50;;;;;;5032777;28;20395;-74
2021/11/27 03:24:25;;;;;;;1.10;0.80;;;21.10;34.60;;;;;;5032797;28;20387;-74
2021/11/27 03:26:51;;;;;;;1.48;0.98;;;21.10;34.50;;;;;;5030653;28;20426;-74
2021/11/27 03:29:17;;;;;;;1.20;1.00;;;21.10;34.50;;;;;;5031204;28;20399;-74
2021/11/27 03:31:43;;;;;;;1.23;0.80;;;21.10;34.40;;;;;;5047851;28;20800;-74
2021/11/27 03:34:09;;;;;;;1.15;0.82;;;21.10;34.40;;;;;;5032194;28;20391;-74
2021/11/27 03:36:35;;;;;;;1.52;0.93;;;21.10;34.40;;;;;;5031213;28;20403;-73
2021/11/27 03:39:02;;;;;;;1.23;0.80;;;21.10;34.50;;;;;;5031930;28;20760;-73
2021/11/27 03:41:28;;;;;;;1.33;0.80;;;21.10;34.40;;;;;;5031007;28;20447;-74
2021/11/27 03:43:54;;;;;;;1.85;0.88;;;21.00;34.40;;;;;;5031004;28;20794;-74
2021/11/27 03:46:20;;;;;;;1.40;0.80;;;21.10;34.40;;;;;;5030814;28;20418;-74
2021/11/27 03:48:46;;;;;;;1.40;0.80;;;21.10;34.50;;;;;;5047053;28;20414;-74
2021/11/27 03:51:19;;;;;;;1.30;0.90;;;21.10;34.40;;;;;;5032066;28;20776;-74
2021/11/27 03:53:45;;;;;;;1.10;0.80;;;21.10;34.40;;;;;;5032199;28;20395;-73
2021/11/27 03:56:15;;;;;;;1.27;0.90;;;21.10;34.40;;;;;;5030682;28;20398;-74
2021/11/27 03:58:41;;;;;;;1.00;0.70;;;21.10;34.40;;;;;;5030426;28;20441;-74
2021/11/27 04:01:09;;;;;;;0.90;0.70;;;21.10;34.50;;;;;;5031673;28;20806;-74
2021/11/27 04:03:36;;;;;;;1.30;0.80;;;21.10;34.60;;;;;;5031924;28;20391;-74
2021/11/27 04:06:04;;;;;;;1.50;0.90;;;21.00;34.60;;;;;;5030615;28;20395;-74
2021/11/27 04:08:30;;;;;;;1.00;0.88;;;21.00;34.50;;;;;;5030331;28;20450;-74
2021/11/27 04:10:55;;;;;;;1.05;0.80;;;21.00;34.50;;;;;;5031367;28;20398;-74
2021/11/27 04:13:22;;;;;;;1.00;0.80;;;21.00;34.50;;;;;;5031830;28;20391;-74
2021/11/27 04:15:48;;;;;;;1.40;0.80;;;21.00;34.60;;;;;;5031478;28;20422;-73
2021/11/27 04:18:14;;;;;;;1.67;0.88;;;21.00;34.60;;;;;;5031700;28;20435;-75
2021/11/27 04:20:41;;;;;;;1.20;0.90;;;21.00;34.60;;;;;;5030541;28;20403;-75
2021/11/27 04:23:07;;;;;;;1.05;0.80;;;21.00;34.60;;;;;;5031468;28;20402;-74
2021/11/27 04:25:32;;;;;;;1.30;0.80;;;21.10;34.60;;;;;;5031479;28;20395;-73
2021/11/27 04:27:58;;;;;;;0.82;0.65;;;21.00;34.50;;;;;;5031007;28;20472;-74
2021/11/27 04:30:26;;;;;;;1.37;0.90;;;21.00;34.60;;;;;;5031684;28;20384;-74
2021/11/27 04:32:53;;;;;;;1.10;0.90;;;21.00;34.40;;;;;;5030954;28;20402;-74
2021/11/27 04:35:19;;;;;;;1.20;0.80;;;21.00;34.40;;;;;;5031443;28;20434;-73
2021/11/27 04:37:45;;;;;;;1.20;0.70;;;21.00;34.50;;;;;;5031544;28;20387;-73
2021/11/27 04:40:12;;;;;;;1.25;0.80;;;21.00;34.50;;;;;;5031350;28;20722;-73
2021/11/27 04:42:38;;;;;;;1.03;0.63;;;21.00;34.60;;;;;;5031308;28;20825;-73
2021/11/27 04:45:05;;;;;;;1.27;0.88;;;21.00;34.60;;;;;;5030768;28;20494;-73
2021/11/27 04:47:32;;;;;;;0.90;0.70;;;21.00;34.40;;;;;;5031299;28;20419;-74
2021/11/27 04:49:58;;;;;;;1.07;0.70;;;21.00;34.60;;;;;;5031408;28;20386;-74
2021/11/27 04:52:24;;;;;;;1.10;0.68;;;21.00;34.50;;;;;;5031423;28;20390;-75
2021/11/27 04:54:50;;;;;;;1.07;0.70;;;21.00;34.50;;;;;;5030900;28;20521;-73
2021/11/27 04:57:16;;;;;;;1.00;0.60;;;21.00;34.50;;;;;;5030055;28;20396;-74
2021/11/27 04:59:43;;;;;;;1.27;0.63;;;21.00;34.70;;;;;;5030026;28;20427;-74
2021/11/27 05:02:09;;;;;;;1.35;0.70;;;21.00;34.50;;;;;;5031102;28;20509;-74
2021/11/27 05:04:36;;;;;;;1.10;0.75;;;21.00;34.50;;;;;;5031041;28;20482;-74
2021/11/27 05:07:02;;;;;;;1.00;0.60;;;21.00;34.40;;;;;;5030574;28;20410;-75
2021/11/27 05:09:28;;;;;;;1.00;0.60;;;21.00;34.50;;;;;;5030039;28;20430;-73
2021/11/27 05:11:54;;;;;;;1.10;0.67;;;21.00;34.40;;;;;;5029728;28;20431;-73
2021/11/27 05:14:19;;;;;;;1.20;0.70;;;21.00;34.40;;;;;;5031061;28;20876;-74
2021/11/27 05:16:45;;;;;;;0.98;0.70;;;21.00;34.40;;;;;;5029774;28;20406;-73
2021/11/27 05:19:11;;;;;;;1.27;0.70;;;21.00;34.50;;;;;;5030906;28;20388;-74
2021/11/27 05:21:37;;;;;;;1.02;0.65;;;20.90;34.40;;;;;;5030013;28;20387;-74
2021/11/27 05:24:03;;;;;;;1.10;0.63;;;20.90;34.60;;;;;;5031022;28;20395;-75
2021/11/27 05:26:29;;;;;;;1.05;0.60;;;20.90;34.40;;;;;;5030429;28;20506;-74
2021/11/27 05:28:55;;;;;;;0.98;0.57;;;20.90;34.40;;;;;;5033901;28;20470;-74
2021/11/27 05:31:22;;;;;;;0.90;0.60;;;20.90;34.60;;;;;;5034757;28;20725;-74
2021/11/27 05:34:09;;;;;;;0.90;0.60;;;20.90;34.60;;;;;;5034819;28;20395;-74
2021/11/27 05:36:39;;;;;;;0.75;0.63;;;20.90;34.50;;;;;;5034156;28;20394;-72
2021/11/27 05:39:05;;;;;;;0.88;0.60;;;20.90;34.50;;;;;;5032689;28;20429;-74
2021/11/27 05:41:30;;;;;;;0.90;0.70;;;20.90;34.60;;;;;;5033106;28;20382;-74
2021/11/27 05:43:57;;;;;;;0.90;0.60;;;20.90;34.50;;;;;;5033168;28;20452;-75
2021/11/27 05:46:23;;;;;;;0.75;0.55;;;20.90;34.60;;;;;;5033374;28;20425;-75
2021/11/27 05:48:49;;;;;;;1.10;0.67;;;20.80;34.50;;;;;;5034151;28;20489;-76
2021/11/27 05:51:15;;;;;;;1.20;0.70;;;20.80;34.60;;;;;;5034515;28;20456;-75
2021/11/27 05:53:41;;;;;;;0.77;0.50;;;20.80;34.50;;;;;;5033283;28;20402;-75
2021/11/27 05:56:07;;;;;;;0.93;0.65;;;20.90;34.60;;;;;;5034557;28;20416;-77
2021/11/27 05:58:33;;;;;;;0.80;0.50;;;20.90;34.70;;;;;;5033208;28;20898;-74
2021/11/27 06:01:05;;;;;;;2.90;0.70;;;20.90;35.10;;;;;;5033711;28;20402;-74
2021/11/27 06:03:32;;;;;;;4.00;0.80;;;20.90;35.80;;;;;;5034409;28;20402;-76
2021/11/27 06:05:58;;;;;;;2.30;0.63;;;20.90;36.90;;;;;;5032639;28;20399;-75
2021/11/27 06:08:24;;;;;;;5.78;2.30;;;21.00;35.70;;;;;;5032741;28;20468;-75
2021/11/27 06:10:50;;;;;;;7.72;2.38;;;21.10;36.30;;;;;;5034040;28;20391;-74
2021/11/27 06:13:16;;;;;;;3.85;1.38;;;21.20;39.60;;;;;;5032903;28;20955;-75
2021/11/27 06:15:42;;;;;;;3.33;1.13;;;21.20;38.60;;;;;;5030641;28;20407;-74
2021/11/27 06:18:08;;;;;;;3.00;1.20;;;21.30;38.00;;;;;;5032735;28;20478;-74
2021/11/27 06:20:33;;;;;;;3.03;1.30;;;21.30;37.90;;;;;;5032240;28;20829;-77
2021/11/27 06:22:59;;;;;;;2.57;1.40;;;21.30;38.00;;;;;;5032013;28;20410;-74
2021/11/27 06:25:26;;;;;;;3.58;1.15;;;21.30;37.80;;;;;;5032525;28;20498;-77
2021/11/27 06:27:52;;;;;;;4.00;1.00;;;21.30;37.50;;;;;;5032741;28;20924;-74
2021/11/27 06:30:18;;;;;;;1.92;1.15;;;21.40;37.50;;;;;;5029827;28;20411;-75
2021/11/27 06:32:44;;;;;;;2.00;0.95;;;21.40;36.90;;;;;;5032768;28;20410;-75
2021/11/27 06:35:11;;;;;;;2.83;1.00;;;21.30;37.20;;;;;;5033408;28;20395;-74
2021/11/27 06:37:37;;;;;;;4.68;1.02;;;21.30;37.40;;;;;;5033598;28;20395;-75
2021/11/27 06:40:03;;;;;;;3.63;0.95;;;21.40;37.30;;;;;;5031941;28;20418;-76
2021/11/27 06:42:28;;;;;;;3.58;0.90;;;21.40;37.20;;;;;;5033831;28;20402;-76
2021/11/27 06:44:54;;;;;;;2.97;0.80;;;21.40;37.20;;;;;;5031401;28;20387;-76
2021/11/27 06:47:22;;;;;;;1.42;1.00;;;21.40;37.10;;;;;;5032292;28;20429;-76
2021/11/27 06:49:49;;;;;;;2.40;0.90;;;21.40;36.90;;;;;;5032098;28;20749;-74
2021/11/27 06:52:16;;;;;;;3.45;0.80;;;21.40;36.90;;;;;;5032007;28;20408;-76
2021/11/27 06:54:43;;;;;;;3.40;0.95;;;21.50;36.90;;;;;;5032924;28;20391;-74
2021/11/27 06:57:10;;;;;;;1.85;0.75;;;21.50;36.80;;;;;;5032420;28;20920;-75
2021/11/27 06:59:37;;;;;;;4.90;0.75;;;21.50;36.70;;;;;;5032962;28;20781;-75
2021/11/27 07:02:03;;;;;;;3.90;1.10;;;21.50;36.70;;;;;;5031239;28;20904;-75
2021/11/27 07:04:29;;;;;;;3.10;0.90;;;21.50;36.50;;;;;;5012608;28;20408;-76
2021/11/27 07:06:55;;;;;;;4.07;1.65;;;21.50;36.40;;;;;;5013124;28;20447;-75
2021/11/27 07:09:21;;;;;;;4.63;1.38;;;21.40;36.30;;;;;;5013441;28;20417;-73
2021/11/27 07:11:46;;;;;;;6.13;1.80;;;21.30;35.90;;;;;;5013235;28;20487;-75
2021/11/27 07:14:12;;;;;;;2.25;1.70;;;21.30;35.30;;;;;;5013113;28;20411;-76
2021/11/27 07:16:38;;;;;;;2.77;1.80;;;21.20;35.40;;;;;;5011916;28;20405;-73
2021/11/27 07:19:04;;;;;;;3.08;1.60;;;21.20;35.30;;;;;;5011309;28;20490;-72
2021/11/27 07:21:30;;;;;;;3.10;1.52;;;21.10;35.20;;;;;;5012906;28;20475;-73
2021/11/27 07:23:56;;;;;;;3.65;1.40;;;21.10;35.30;;;;;;5012842;28;20480;-75
2021/11/27 07:26:22;;;;;;;2.13;1.50;;;21.10;35.30;;;;;;5012712;28;20641;-74
2021/11/27 07:28:49;;;;;;;4.15;1.42;;;21.00;35.30;;;;;;5011812;28;20480;-73
2021/11/27 07:31:15;;;;;;;2.00;1.35;;;21.00;35.30;;;;;;5012577;28;20443;-74
2021/11/27 07:33:40;;;;;;;2.35;1.35;;;21.00;35.40;;;;;;5012948;28;20484;-75
2021/11/27 07:36:06;;;;;;;2.20;1.23;;;21.00;35.40;;;;;;5012683;28;20452;-76
2021/11/27 07:38:33;;;;;;;1.67;1.20;;;21.00;35.40;;;;;;5011450;28;20466;-76
2021/11/27 07:40:59;;;;;;;3.03;1.65;;;21.00;35.40;;;;;;5012342;28;20396;-76
2021/11/27 07:43:25;;;;;;;3.58;1.70;;;21.00;36.10;;;;;;5027856;28;20772;-74
2021/11/27 07:45:51;;;;;;;3.25;1.95;;;21.00;36.40;;;;;;5011073;28;20401;-73
2021/11/27 07:48:17;;;;;;;2.40;1.20;;;21.00;36.70;;;;;;5011764;28;20413;-77
2021/11/27 07:50:43;;;;;;;2.10;1.40;;;21.00;35.40;;;;;;5012746;28;20397;-73
2021/11/27 07:53:08;;;;;;;3.50;1.77;;;21.00;36.00;;;;;;5010805;28;20416;-75
2021/11/27 07:55:34;;;;;;;5.63;2.00;;;21.00;36.60;;;;;;5011311;28;20403;-75
2021/11/27 07:58:00;;;;;;;3.60;1.70;;;21.00;36.80;;;;;;5011205;28;20401;-74
2021/11/27 08:00:26;;;;;;;3.50;1.97;;;21.10;37.00;;;;;;5011229;28;20480;-76
2021/11/27 08:02:52;;;;;;;4.13;1.60;;;21.10;37.40;;;;;;5027537;28;20847;-76
2021/11/27 08:05:17;;;;;;;2.78;2.30;;;21.10;37.20;;;;;;5010822;28;20395;-77
2021/11/27 08:07:43;;;;;;;4.13;2.20;;;21.20;37.80;;;;;;5034528;28;20520;-74
2021/11/27 08:10:12;;;;;;;3.55;2.30;;;21.20;37.90;;;;;;5034874;28;20390;-73
2021/11/27 08:12:38;;;;;;;4.07;2.50;;;21.20;38.10;;;;;;5047044;28;20457;-73
2021/11/27 08:15:06;;;;;;;4.70;2.20;;;21.30;38.00;;;;;;5029842;28;20889;-76
2021/11/27 08:17:32;;;;;;;3.55;2.00;;;21.20;37.20;;;;;;5030656;28;20474;-75
2021/11/27 08:19:58;;;;;;;3.53;1.77;;;21.30;37.30;;;;;;5021847;28;20399;-75
2021/11/27 08:22:24;;;;;;;4.90;1.85;;;21.20;37.20;;;;;;5020598;28;20494;-74
2021/11/27 08:24:51;;;;;;;5.22;1.85;;;21.30;37.20;;;;;;5021774;28;20391;-75
2021/11/27 08:27:17;;;;;;;3.38;1.58;;;21.30;36.80;;;;;;5020432;28;21044;-73
2021/11/27 08:29:43;;;;;;;2.22;1.40;;;21.30;36.30;;;;;;5022937;28;20399;-75
2021/11/27 08:32:09;;;;;;;2.47;1.40;;;21.30;36.70;;;;;;5022796;28;20801;-76
2021/11/27 08:34:35;;;;;;;3.15;1.45;;;21.20;36.60;;;;;;5022531;28;20395;-74
2021/11/27 08:37:01;;;;;;;2.65;1.33;;;21.20;36.60;;;;;;5021641;28;20437;-73
2021/11/27 08:39:27;;;;;;;4.13;1.27;;;21.30;36.60;;;;;;5022584;28;20433;-76
2021/11/27 08:41:52;;;;;;;4.05;1.30;;;21.20;36.40;;;;;;5022946;28;20430;-75
2021/11/27 08:44:18;;;;;;;4.55;1.40;;;21.30;36.40;;;;;;5021499;28;20431;-75
2021/11/27 08:46:44;;;;;;;1.88;1.20;;;21.30;36.40;;;;;;5022918;28;20411;-74
2021/11/27 08:49:10;;;;;;;2.10;1.20;;;21.20;36.80;;;;;;5022691;28;20478;-76
2021/11/27 08:51:38;;;;;;;1.88;1.20;;;21.20;36.10;;;;;;5022681;28;20387;-74
2021/11/27 08:54:05;;;;;;;2.00;1.38;;;21.30;36.10;;;;;;5022365;28;20458;-76
2021/11/27 08:56:31;;;;;;;2.23;1.10;;;21.30;36.00;;;;;;5021551;28;21010;-74
2021/11/27 08:58:57;;;;;;;2.20;1.00;;;21.20;36.00;;;;;;5022191;28;20401;-74
2021/11/27 09:01:23;;;;;;;2.38;1.10;;;21.20;35.90;;;;;;5022708;28;20765;-74
2021/11/27 09:03:49;;;;;;;1.63;1.10;;;21.20;35.90;;;;;;5025179;28;20397;-75
2021/11/27 09:06:15;;;;;;;1.80;1.17;;;21.20;35.80;;;;;;5026587;28;20395;-75
2021/11/27 09:08:42;;;;;;;3.75;1.20;;;21.20;35.80;;;;;;5026314;28;20873;-75
2021/11/27 09:11:13;;;;;;;2.00;1.00;;;21.30;35.70;;;;;;5025638;28;20391;-73
2021/11/27 09:13:40;;;;;;;1.80;1.02;;;21.20;35.70;;;;;;5026339;28;20395;-74
2021/11/27 09:16:07;;;;;;;1.95;1.00;;;21.20;35.70;;;;;;5026112;28;20387;-75
2021/11/27 09:18:33;;;;;;;1.60;0.90;;;21.20;35.70;;;;;;5025263;28;20439;-76
2021/11/27 09:21:01;;;;;;;2.80;1.10;;;21.20;35.70;;;;;;5025887;28;20427;-74
2021/11/27 09:23:27;;;;;;;2.10;1.10;;;21.20;35.70;;;;;;5024986;28;20997;-75
2021/11/27 09:25:52;;;;;;;1.92;1.20;;;21.20;35.70;;;;;;5024708;28;20489;-76
2021/11/27 09:28:18;;;;;;;1.40;0.80;;;21.20;35.60;;;;;;5025139;28;20449;-74
2021/11/27 09:30:44;;;;;;;1.60;0.95;;;21.20;35.60;;;;;;5026523;28;20474;-75
2021/11/27 09:33:10;;;;;;;1.57;1.10;;;21.20;35.50;;;;;;5025653;28;20518;-73
2021/11/27 09:35:38;;;;;;;2.50;1.00;;;21.20;35.50;;;;;;5025037;28;20518;-74
2021/11/27 09:38:04;;;;;;;2.30;1.20;;;21.20;35.50;;;;;;5024388;28;20486;-75
2021/11/27 09:40:38;;;;;;;1.50;0.98;;;21.20;35.50;;;;;;5023953;28;20465;-77
2021/11/27 09:43:05;;;;;;;1.40;1.00;;;21.20;35.50;;;;;;5024199;28;20399;-74
2021/11/27 09:45:33;;;;;;;1.83;1.10;;;21.20;35.40;;;;;;5026015;28;20828;-76
2021/11/27 09:48:02;;;;;;;2.13;1.02;;;21.20;35.30;;;;;;5026006;28;20948;-76
2021/11/27 09:50:28;;;;;;;1.30;0.90;;;21.20;35.30;;;;;;5024857;28;20395;-77
2021/11/27 09:52:56;;;;;;;1.70;0.97;;;21.20;35.40;;;;;;5024884;28;20912;-75
2021/11/27 09:55:21;;;;;;;1.98;1.00;;;21.20;35.30;;;;;;5025567;28;20383;-76
2021/11/27 09:57:49;;;;;;;1.60;1.00;;;21.20;35.20;;;;;;5025769;28;20403;-77
2021/11/27 10:00:18;;;;;;;1.80;1.00;;;21.10;35.30;;;;;;5025544;28;20445;-74
2021/11/27 10:02:44;;;;;;;1.70;1.10;;;21.20;35.40;;;;;;5015786;28;20407;-73
2021/11/27 10:05:12;;;;;;;2.30;1.23;;;21.20;35.50;;;;;;5024693;28;20387;-73
2021/11/27 10:07:40;;;;;;;4.37;1.40;;;21.10;35.40;;;;;;5025246;28;20434;-74
2021/11/27 10:10:09;;;;;;;2.00;1.13;;;21.10;35.50;;;;;;5022689;28;20486;-74
2021/11/27 10:12:35;;;;;;;2.10;1.10;;;21.10;35.30;;;;;;5022897;28;21022;-76
2021/11/27 10:15:01;;;;;;;6.38;1.55;;;21.10;35.90;;;;;;5023043;28;20398;-74
2021/11/27 10:17:31;;;;;;;2.40;1.10;;;21.10;36.80;;;;;;5024779;28;20399;-74
2021/11/27 10:20:00;;;;;;;3.42;1.60;;;21.30;36.20;;;;;;5021948;28;20402;-73
2021/11/27 10:22:38;;;;;;;5.70;1.70;;;21.30;37.20;;;;;;5023476;28;21361;-73
2021/11/27 10:25:28;;;;;;;3.65;2.00;;;21.30;38.10;;;;;;5022991;28;20387;-75
2021/11/27 10:28:09;;;;;;;4.60;2.08;;;21.40;38.90;;;;;;5023535;28;20419;-77
2021/11/27 10:30:50;;;;;;;5.30;2.00;;;21.50;38.50;;;;;;5023168;28;20399;-75
2021/11/27 10:33:16;;;;;;;5.55;1.80;;;21.60;38.40;;;;;;5023447;28;20415;-71
2021/11/27 10:36:10;;;;;;;7.85;1.92;;;21.60;38.30;;;;;;5037591;28;20807;-72
2021/11/27 10:38:45;;;;;;;6.93;1.95;;;21.70;38.80;;;;;;5022399;28;20406;-72
2021/11/27 10:41:15;;;;;;;7.97;1.98;;;21.70;38.80;;;;;;5019874;28;20473;-71
2021/11/27 10:44:23;;;;;;;5.80;1.90;;;21.70;39.20;;;;;;5037281;28;20991;-74
2021/11/27 10:46:49;;;;;;;7.07;2.00;;;21.80;38.70;;;;;;5038983;28;20520;-73
2021/11/27 10:49:25;;;;;;;4.88;1.70;;;21.70;39.00;;;;;;5020294;28;20553;-73
2021/11/27 10:52:12;;;;;;;5.20;1.80;;;21.80;39.10;;;;;;5022131;28;20383;-75
2021/11/27 10:54:58;;;;;;;6.10;1.60;;;21.80;39.20;;;;;;5020875;28;20409;-72
2021/11/27 10:57:34;;;;;;;6.53;1.80;;;21.80;38.90;;;;;;5021415;28;20454;-72
2021/11/27 11:00:27;;;;;;;5.95;1.90;;;21.80;38.40;;;;;;5021852;28;20869;-74
2021/11/27 11:02:59;;;;;;;3.67;1.40;;;21.80;38.60;;;;;;5020888;28;20419;-71
2021/11/27 11:05:41;;;;;;;3.88;1.60;;;21.80;38.50;;;;;;5023078;28;20403;-73
2021/11/27 11:08:08;;;;;;;3.65;1.45;;;21.80;38.40;;;;;;5022522;28;20419;-73
2021/11/27 11:10:39;;;;;;;4.53;1.35;;;21.80;38.40;;;;;;5022743;28;20379;-70
2021/11/27 11:13:10;;;;;;;4.05;1.30;;;21.80;38.30;;;;;;5037226;28;20439;-76
2021/11/27 11:15:44;;;;;;;3.90;1.33;;;21.80;38.30;;;;;;5021819;28;20522;-71
2021/11/27 11:18:15;;;;;;;3.97;1.47;;;21.80;38.20;;;;;;5020769;28;20395;-71
2021/11/27 11:20:46;;;;;;;2.47;1.30;;;21.80;38.10;;;;;;5021094;28;20406;-71
2021/11/27 11:23:19;;;;;;;4.53;1.23;;;21.70;37.90;;;;;;5020704;28;20492;-75
2021/11/27 11:26:13;;;;;;;2.53;1.38;;;21.70;37.80;;;;;;5019487;28;21307;-75
2021/11/27 11:28:52;;;;;;;2.70;1.40;;;21.70;37.50;;;;;;5021291;28;20407;-71
2021/11/27 11:31:31;;;;;;;2.38;1.20;;;21.60;37.80;;;;;;5021327;28;20391;-72
2021/11/27 11:33:59;;;;;;;3.40;1.33;;;21.60;37.90;;;;;;5020660;28;20410;-72
2021/11/27 11:36:26;;;;;;;3.22;1.40;;;21.60;37.50;;;;;;5020054;28;20399;-72
2021/11/27 11:38:55;;;;;;;2.93;1.20;;;21.60;37.30;;;;;;5021040;28;20407;-72
2021/11/27 11:41:23;;;;;;;3.38;1.40;;;21.60;37.40;;;;;;5021740;28;20379;-73
2021/11/27 11:43:51;;;;;;;3.67;1.38;;;21.60;37.10;;;;;;5021911;28;20869;-71
2021/11/27 11:46:17;;;;;;;5.00;1.70;;;21.60;36.90;;;;;;5022039;28;20415;-70
2021/11/27 11:48:49;;;;;;;4.45;1.83;;;21.60;36.70;;;;;;5020611;28;20403;-74
2021/11/27 11:51:35;;;;;;;3.35;1.40;;;21.50;37.00;;;;;;5018880;28;20402;-74
2021/11/27 11:54:02;;;;;;;2.63;1.13;;;21.50;37.00;;;;;;5022037;28;20398;-76
2021/11/27 11:56:36;;;;;;;2.45;1.30;;;21.50;37.10;;;;;;5022097;28;20413;-77
2021/11/27 11:59:22;;;;;;;2.08;1.30;;;21.50;37.10;;;;;;5022927;28;20433;-77
2021/11/27 12:02:17;;;;;;;5.13;1.42;;;21.50;36.90;;;;;;5021312;28;20415;-70
2021/11/27 12:04:58;;;;;;;4.38;1.38;;;21.50;36.80;;;;;;5021470;28;21586;-76
2021/11/27 12:07:44;;;;;;;4.15;1.40;;;21.40;36.80;;;;;;5021748;28;20419;-71
2021/11/27 12:10:25;;;;;;;2.92;1.38;;;21.50;36.70;;;;;;5022171;28;20383;-71
2021/11/27 12:13:15;;;;;;;2.22;1.10;;;21.50;36.60;;;;;;5021670;28;20403;-72
2021/11/27 12:15:46;;;;;;;2.50;1.27;;;21.50;36.50;;;;;;5021660;28;20431;-72
2021/11/27 12:18:18;;;;;;;2.90;1.20;;;21.50;36.50;;;;;;5022102;28;20474;-71
2021/11/27 12:20:56;;;;;;;2.85;1.10;;;21.40;36.50;;;;;;5021068;28;20407;-71
2021/11/27 12:23:42;;;;;;;2.55;1.17;;;21.50;36.50;;;;;;5021770;28;20410;-71
2021/11/27 12:28:41;;;;;;;2.50;1.20;;;21.40;36.60;;;;;;5022204;28;20525;-71
2021/11/27 12:31:11;;;;;;;2.75;1.30;;;21.30;36.50;;;;;;5021286;28;20849;-72
2021/11/27 12:33:48;;;;;;;1.85;1.40;;;21.40;36.60;;;;;;5021980;28;20406;-77
2021/11/27 12:36:29;;;;;;;3.63;2.00;;;21.40;36.70;;;;;;5021202;28;20398;-75
2021/11/27 12:39:02;;;;;;;5.50;2.92;;;21.40;36.80;;;;;;5019924;28;20438;-73
2021/11/27 12:41:40;;;;;;;11.10;6.65;;;21.40;36.70;;;;;;5021156;28;20387;-74
2021/11/27 12:44:28;;;;;;;14.82;7.43;;;21.50;36.80;;;;;;5021150;28;20450;-72
2021/11/27 12:46:59;;;;;;;10.52;6.60;;;21.50;36.90;;;;;;5024549;28;20422;-73
2021/11/27 12:49:31;;;;;;;9.60;5.90;;;21.50;36.80;;;;;;5020920;28;20748;-76
2021/11/27 12:52:23;;;;;;;9.98;6.07;;;21.50;36.70;;;;;;5020445;28;20928;-73
2021/11/27 12:54:52;;;;;;;11.60;6.75;;;21.40;36.90;;;;;;5017540;28;20403;-72